Time;durP1;ratioP1;P1;durP2;ratioP2;P2;SDS_P1;SDS_P2;PMS_P1;PMS_P2;Temp;Humidity;BMP_temperature;BMP_pressure;BME280_temperature;BME280_humidity;BME280_pressure;Samples;Min_cycle;Max_cycle;Signal;HPM_P1;HPM_P2
2022/10/06 04:01:20;;;;;;;4.70;3.80;;;14.90;99.90;;;;;;5550790;23;20557;-63
2022/10/06 04:03:48;;;;;;;5.03;3.87;;;15.00;99.90;;;;;;4977438;28;20444;-63
2022/10/06 04:06:17;;;;;;;6.37;3.43;;;15.10;99.90;;;;;;4976870;28;20992;-63
2022/10/06 04:08:44;;;;;;;6.13;3.60;;;15.20;99.90;;;;;;4977147;28;20459;-63
2022/10/06 04:11:13;;;;;;;4.23;3.43;;;15.30;99.90;;;;;;4976901;28;20478;-63
2022/10/06 04:13:41;;;;;;;4.30;3.90;;;15.40;99.90;;;;;;4977051;28;20462;-63
2022/10/06 04:16:16;;;;;;;3.80;3.50;;;15.50;99.90;;;;;;4977141;28;20458;-63
2022/10/06 04:18:46;;;;;;;6.53;3.93;;;15.60;99.90;;;;;;4977482;28;20454;-64
2022/10/06 04:21:13;;;;;;;7.77;4.13;;;15.70;99.90;;;;;;4976758;28;20479;-64
2022/10/06 04:23:40;;;;;;;5.10;4.30;;;15.80;99.90;;;;;;4976921;28;20451;-63
2022/10/06 04:26:10;;;;;;;5.93;5.30;;;15.80;99.90;;;;;;4987696;28;20459;-64
2022/10/06 04:28:37;;;;;;;7.07;4.37;;;15.90;99.90;;;;;;4994278;28;20478;-63
2022/10/06 04:31:11;;;;;;;4.93;4.23;;;16.00;99.90;;;;;;4994051;28;20451;-64
2022/10/06 04:33:38;;;;;;;5.03;4.63;;;16.00;99.90;;;;;;4992769;28;20446;-63
2022/10/06 04:36:08;;;;;;;5.60;4.10;;;16.10;99.90;;;;;;4980117;28;20474;-63
2022/10/06 04:38:35;;;;;;;4.13;3.83;;;16.10;99.90;;;;;;4979492;28;20458;-63
2022/10/06 04:41:07;;;;;;;6.70;5.10;;;16.20;99.90;;;;;;4981805;28;20478;-63
2022/10/06 04:43:34;;;;;;;8.70;4.90;;;16.20;99.90;;;;;;4984919;28;20454;-64
2022/10/06 04:46:01;;;;;;;7.20;5.20;;;16.30;99.90;;;;;;4985284;28;20446;-63
2022/10/06 04:48:29;;;;;;;5.40;4.60;;;16.30;99.90;;;;;;4982182;28;20459;-64
2022/10/06 04:50:58;;;;;;;6.63;4.43;;;16.30;99.90;;;;;;4978110;28;20529;-64
2022/10/06 04:53:27;;;;;;;5.83;4.67;;;16.30;99.90;;;;;;4976371;28;20506;-63
2022/10/06 04:56:01;;;;;;;5.53;4.90;;;16.40;99.90;;;;;;4976218;28;20454;-63
2022/10/06 04:58:31;;;;;;;5.03;4.33;;;16.40;99.90;;;;;;4976290;28;20450;-63
2022/10/06 05:00:57;;;;;;;6.03;5.40;;;16.50;99.90;;;;;;4975836;28;20557;-63
2022/10/06 05:03:24;;;;;;;8.60;4.90;;;16.50;99.90;;;;;;4976030;28;20529;-64
2022/10/06 05:05:51;;;;;;;6.23;4.90;;;16.50;99.90;;;;;;4976000;28;20800;-64
2022/10/06 05:08:17;;;;;;;14.23;4.33;;;16.50;99.90;;;;;;4975721;28;21059;-63
2022/10/06 05:10:45;;;;;;;5.60;4.53;;;16.60;99.90;;;;;;4977089;28;20471;-63
2022/10/06 05:13:14;;;;;;;6.83;4.77;;;16.60;99.90;;;;;;4979684;28;20480;-63
2022/10/06 05:15:40;;;;;;;6.53;5.10;;;16.60;99.90;;;;;;4979436;28;20463;-63
2022/10/06 05:18:07;;;;;;;8.03;4.93;;;16.60;99.90;;;;;;4978205;28;20455;-63
2022/10/06 05:20:34;;;;;;;5.40;5.00;;;16.60;99.90;;;;;;4978695;28;20478;-63
2022/10/06 05:23:00;;;;;;;10.17;5.90;;;16.60;99.90;;;;;;4979652;28;20455;-63
2022/10/06 05:25:27;;;;;;;6.43;5.20;;;16.60;99.90;;;;;;4978112;28;20454;-62
2022/10/06 05:27:55;;;;;;;6.60;5.50;;;16.60;99.90;;;;;;4976624;28;20482;-62
2022/10/06 05:30:21;;;;;;;5.60;4.90;;;16.60;99.90;;;;;;4975441;28;20454;-63
2022/10/06 05:32:49;;;;;;;5.60;4.53;;;16.60;99.90;;;;;;4977036;28;20458;-62
2022/10/06 05:35:17;;;;;;;6.87;4.83;;;16.60;99.90;;;;;;4977380;28;20458;-64
2022/10/06 05:37:44;;;;;;;5.07;4.60;;;16.60;99.90;;;;;;4975569;28;21024;-63
2022/10/06 05:40:11;;;;;;;5.77;5.20;;;16.60;99.90;;;;;;4974802;28;20529;-64
2022/10/06 05:42:39;;;;;;;5.73;4.87;;;16.50;99.90;;;;;;4975294;28;20463;-62
2022/10/06 05:45:08;;;;;;;9.30;5.23;;;16.50;99.90;;;;;;4975299;28;20451;-63
2022/10/06 05:47:35;;;;;;;9.63;5.40;;;16.50;99.90;;;;;;4975149;28;20479;-63
2022/10/06 05:50:02;;;;;;;6.20;4.70;;;16.50;99.90;;;;;;4975335;28;20501;-63
2022/10/06 05:52:29;;;;;;;7.63;5.03;;;16.50;99.90;;;;;;4976982;28;20474;-63
2022/10/06 05:54:55;;;;;;;8.37;5.53;;;16.50;99.90;;;;;;4983141;28;20454;-64
2022/10/06 05:57:22;;;;;;;6.50;4.73;;;16.50;99.90;;;;;;4985085;28;20493;-64
2022/10/06 05:59:48;;;;;;;7.43;6.07;;;16.50;99.90;;;;;;4984091;28;20454;-64
2022/10/06 06:02:16;;;;;;;5.57;4.50;;;16.50;99.90;;;;;;4984786;28;20478;-64
2022/10/06 06:04:43;;;;;;;7.87;5.30;;;16.50;99.90;;;;;;4982411;28;20462;-65
2022/10/06 06:07:10;;;;;;;5.17;4.63;;;16.50;99.90;;;;;;4975110;28;20513;-65
2022/10/06 06:09:37;;;;;;;5.80;5.30;;;16.60;99.90;;;;;;4975177;28;20454;-64
2022/10/06 06:12:03;;;;;;;8.53;5.83;;;16.60;99.90;;;;;;4974922;28;20522;-64
2022/10/06 06:17:14;;;;;;;5.83;5.27;;;16.60;99.90;;;;;;4975083;28;20498;-65
2022/10/06 06:19:42;;;;;;;7.17;4.63;;;16.60;99.90;;;;;;4974872;28;20880;-64
2022/10/06 06:22:09;;;;;;;5.90;5.40;;;16.60;99.90;;;;;;4975349;28;20475;-65
2022/10/06 06:24:35;;;;;;;6.83;4.80;;;16.60;99.90;;;;;;4976122;28;20455;-64
2022/10/06 06:27:02;;;;;;;6.07;5.13;;;16.60;99.90;;;;;;4976802;28;20482;-63
2022/10/06 06:29:29;;;;;;;6.07;5.20;;;16.60;99.90;;;;;;4976801;28;20454;-64
2022/10/06 06:31:55;;;;;;;6.37;5.63;;;16.60;99.90;;;;;;4975645;28;20531;-64
2022/10/06 06:34:24;;;;;;;5.27;4.77;;;16.70;99.90;;;;;;4974930;28;20513;-63
2022/10/06 06:36:53;;;;;;;8.00;5.00;;;16.70;99.90;;;;;;4974811;28;20461;-64
2022/10/06 06:39:20;;;;;;;5.43;4.77;;;16.70;99.90;;;;;;4974773;28;20459;-65
2022/10/06 06:41:47;;;;;;;6.77;5.37;;;16.80;99.90;;;;;;4974993;28;20482;-63
2022/10/06 06:44:14;;;;;;;5.00;4.57;;;16.80;99.90;;;;;;4974761;28;20454;-65
2022/10/06 06:46:43;;;;;;;4.70;4.30;;;16.90;99.90;;;;;;4974420;28;20501;-64
2022/10/06 06:49:11;;;;;;;8.03;4.63;;;16.90;99.90;;;;;;4975006;28;20431;-63
2022/10/06 06:51:39;;;;;;;5.23;4.40;;;17.00;99.90;;;;;;4974549;28;20474;-63
2022/10/06 06:54:08;;;;;;;7.03;5.23;;;17.10;99.90;;;;;;4978201;28;20435;-63
2022/10/06 06:56:35;;;;;;;7.40;5.10;;;17.10;99.90;;;;;;4978397;28;20800;-65
2022/10/06 06:59:04;;;;;;;7.27;4.90;;;17.20;99.90;;;;;;4978418;28;20482;-65
2022/10/06 07:01:31;;;;;;;6.13;4.67;;;17.30;99.90;;;;;;4977907;28;20494;-64
2022/10/06 07:03:58;;;;;;;6.43;4.67;;;17.40;99.90;;;;;;4978357;28;20455;-64
2022/10/06 07:06:27;;;;;;;5.40;4.90;;;17.40;99.90;;;;;;4978116;28;20490;-64
2022/10/06 07:08:54;;;;;;;4.73;4.33;;;17.50;99.90;;;;;;4978210;28;20483;-63
2022/10/06 07:11:24;;;;;;;5.27;4.77;;;17.50;99.90;;;;;;4978088;28;20529;-63
2022/10/06 07:13:52;;;;;;;6.83;4.30;;;17.50;99.90;;;;;;4978546;28;20509;-64
2022/10/06 07:27:21;;;;;;;6.67;4.03;;;17.50;99.90;;;;;;4977929;28;20578;-64
2022/10/06 07:29:53;;;;;;;5.40;4.50;;;17.50;99.90;;;;;;4977452;28;20968;-64
2022/10/06 07:32:20;;;;;;;9.30;4.10;;;17.50;99.90;;;;;;4977636;28;20485;-65
2022/10/06 07:34:46;;;;;;;5.73;5.23;;;17.50;99.90;;;;;;4977822;28;20458;-64
2022/10/06 07:37:13;;;;;;;4.20;3.70;;;17.60;99.90;;;;;;4977701;28;20489;-64
2022/10/06 07:39:40;;;;;;;5.57;4.03;;;17.60;99.90;;;;;;4977667;28;20462;-64
2022/10/06 07:42:07;;;;;;;4.33;3.77;;;17.50;99.90;;;;;;4977499;28;20482;-64
2022/10/06 07:44:35;;;;;;;10.50;3.60;;;17.50;99.90;;;;;;4977674;28;20517;-64
2022/10/06 07:47:03;;;;;;;4.50;3.40;;;17.40;99.90;;;;;;4977481;28;20455;-64
2022/10/06 07:49:30;;;;;;;5.10;3.30;;;17.40;99.90;;;;;;4977608;28;20926;-64
2022/10/06 07:51:57;;;;;;;5.40;3.50;;;17.40;99.90;;;;;;4977401;28;20485;-64
2022/10/06 07:54:24;;;;;;;6.40;4.83;;;17.50;99.90;;;;;;4977166;28;20546;-64
2022/10/06 07:56:51;;;;;;;3.43;3.10;;;17.40;99.90;;;;;;4977386;28;20549;-64
2022/10/06 07:59:18;;;;;;;8.03;3.27;;;17.40;99.90;;;;;;4977179;28;20505;-64
2022/10/06 08:01:49;;;;;;;4.70;3.20;;;17.40;99.90;;;;;;4976840;28;20544;-64
2022/10/06 08:04:16;;;;;;;5.00;3.30;;;17.40;99.90;;;;;;4981455;28;20443;-64
2022/10/06 08:06:43;;;;;;;4.50;3.10;;;17.50;99.90;;;;;;4982257;28;20529;-64
2022/10/06 08:09:10;;;;;;;5.53;4.10;;;17.60;99.90;;;;;;4979742;28;20489;-65
2022/10/06 08:11:36;;;;;;;6.03;2.83;;;17.60;99.90;;;;;;4977171;28;20501;-64
2022/10/06 08:14:03;;;;;;;5.57;3.07;;;17.60;99.90;;;;;;4976985;28;20455;-64
2022/10/06 08:16:30;;;;;;;4.63;2.63;;;17.60;99.90;;;;;;4976886;28;20513;-64
2022/10/06 08:18:59;;;;;;;2.90;2.70;;;17.60;99.90;;;;;;4977014;28;20458;-64
2022/10/06 08:21:27;;;;;;;4.33;2.67;;;17.60;99.90;;;;;;4976817;28;20478;-64
2022/10/06 08:23:55;;;;;;;3.23;2.60;;;17.60;99.90;;;;;;4977054;28;20454;-64
2022/10/06 08:26:24;;;;;;;6.63;2.30;;;17.60;99.90;;;;;;4976514;28;20509;-64
2022/10/06 08:28:54;;;;;;;6.27;2.90;;;17.60;99.90;;;;;;4976679;28;20569;-64
2022/10/06 08:31:22;;;;;;;3.13;2.83;;;17.60;99.90;;;;;;4976719;28;20474;-64
2022/10/06 08:33:52;;;;;;;3.73;2.60;;;17.70;99.90;;;;;;4976780;28;20867;-64
2022/10/06 08:36:23;;;;;;;4.80;3.03;;;17.70;99.90;;;;;;4976294;28;20950;-64
2022/10/06 08:38:50;;;;;;;3.23;2.37;;;17.70;99.90;;;;;;4976667;28;20499;-63
2022/10/06 08:41:19;;;;;;;3.47;2.83;;;17.80;99.90;;;;;;4976133;28;20985;-64
2022/10/06 08:43:50;;;;;;;2.77;2.57;;;17.70;99.90;;;;;;4976473;28;20545;-63
2022/10/06 08:46:19;;;;;;;4.27;2.77;;;17.70;99.90;;;;;;4977056;28;20447;-64
2022/10/06 08:48:46;;;;;;;5.33;3.10;;;17.70;99.90;;;;;;4976226;28;20482;-64
2022/10/06 08:51:25;;;;;;;9.13;2.53;;;17.80;99.90;;;;;;4976139;28;20516;-63
2022/10/06 08:54:03;;;;;;;2.40;2.20;;;17.90;99.90;;;;;;4976115;28;20439;-64
2022/10/06 08:56:35;;;;;;;2.93;2.33;;;17.90;99.90;;;;;;4976346;28;20450;-64
2022/10/06 08:59:04;;;;;;;5.83;2.27;;;18.00;99.90;;;;;;4976198;28;20442;-64
2022/10/06 09:01:37;;;;;;;4.60;2.50;;;18.10;99.90;;;;;;4976085;28;20479;-64
2022/10/06 09:04:06;;;;;;;4.67;3.00;;;18.10;99.90;;;;;;4976059;28;20470;-64
2022/10/06 09:06:45;;;;;;;9.70;2.77;;;18.20;99.90;;;;;;4976118;28;20907;-64
2022/10/06 09:09:20;;;;;;;8.00;2.30;;;18.30;99.90;;;;;;4975771;28;20497;-64
2022/10/06 09:11:58;;;;;;;2.43;2.13;;;18.40;99.90;;;;;;4976101;28;20480;-65
2022/10/06 09:14:32;;;;;;;3.70;3.00;;;18.40;99.90;;;;;;4975640;28;20449;-66
2022/10/06 09:17:07;;;;;;;4.47;2.63;;;18.40;99.90;;;;;;4975579;28;20494;-64
2022/10/06 09:19:40;;;;;;;5.67;2.40;;;18.50;99.90;;;;;;4975764;28;20776;-65
2022/10/06 09:22:17;;;;;;;3.90;2.37;;;18.60;99.90;;;;;;4975953;28;20482;-64
2022/10/06 09:24:48;;;;;;;4.10;2.20;;;18.70;99.90;;;;;;4975926;28;20435;-64
2022/10/06 09:27:19;;;;;;;3.43;2.67;;;18.70;99.90;;;;;;4975677;28;20534;-65
2022/10/06 09:29:47;;;;;;;2.70;1.70;;;18.80;99.90;;;;;;4975497;28;20475;-64
2022/10/06 09:32:14;;;;;;;4.47;2.30;;;18.90;99.90;;;;;;4975379;28;20474;-64
2022/10/06 09:34:46;;;;;;;4.70;2.07;;;19.00;99.90;;;;;;4975259;28;20451;-64
2022/10/06 09:37:14;;;;;;;7.90;2.17;;;19.10;99.90;;;;;;4975104;28;20498;-64
2022/10/06 09:39:42;;;;;;;8.30;1.80;;;19.30;99.90;;;;;;4975467;28;20814;-63
2022/10/06 09:42:14;;;;;;;4.30;1.87;;;19.50;99.90;;;;;;4976722;28;20474;-64
2022/10/06 09:44:58;;;;;;;4.77;2.17;;;19.50;99.90;;;;;;4975363;28;20849;-63
2022/10/06 09:47:38;;;;;;;2.70;1.60;;;19.60;99.90;;;;;;4975267;28;20451;-64
2022/10/06 09:50:19;;;;;;;3.40;1.63;;;19.70;99.90;;;;;;4975339;28;20431;-63
2022/10/06 09:53:09;;;;;;;3.83;1.53;;;19.60;99.90;;;;;;4975219;28;20445;-64
2022/10/06 09:55:44;;;;;;;3.10;1.60;;;19.80;99.90;;;;;;4974896;28;20786;-64
2022/10/06 09:58:21;;;;;;;4.10;1.63;;;19.90;99.90;;;;;;4975229;28;20442;-64
2022/10/06 10:00:53;;;;;;;2.90;2.27;;;20.20;99.90;;;;;;4974971;28;20573;-64
2022/10/06 10:03:20;;;;;;;3.83;1.73;;;20.40;99.90;;;;;;4975017;28;20454;-64
2022/10/06 10:05:49;;;;;;;4.60;1.80;;;20.90;99.90;;;;;;4975085;28;20490;-65
2022/10/06 10:08:23;;;;;;;4.73;2.10;;;21.80;99.90;;;;;;4974915;28;20529;-65
2022/10/06 10:10:51;;;;;;;4.33;1.73;;;22.50;99.90;;;;;;4974920;28;20486;-64
2022/10/06 10:13:23;;;;;;;3.87;1.70;;;22.60;99.90;;;;;;4974994;28;20459;-64
2022/10/06 10:15:53;;;;;;;3.20;1.80;;;22.40;99.90;;;;;;4975083;28;20498;-65
2022/10/06 10:18:25;;;;;;;4.30;2.07;;;22.20;99.90;;;;;;4974597;28;20441;-64
2022/10/06 10:20:56;;;;;;;7.40;1.70;;;22.00;99.90;;;;;;4975146;28;20553;-65
2022/10/06 10:23:28;;;;;;;1.53;1.13;;;22.00;99.90;;;;;;4975166;28;20544;-64
2022/10/06 10:26:07;;;;;;;3.37;1.87;;;22.00;99.90;;;;;;4975419;28;20442;-64
2022/10/06 10:28:45;;;;;;;6.33;2.50;;;22.30;99.90;;;;;;4978724;28;20468;-64
2022/10/06 10:31:19;;;;;;;4.60;1.50;;;22.50;99.90;;;;;;4979062;28;20481;-65
2022/10/06 10:33:53;;;;;;;5.30;2.20;;;22.50;99.90;;;;;;4978784;28;20534;-64
2022/10/06 10:36:26;;;;;;;5.03;1.97;;;22.50;99.90;;;;;;4979009;28;20525;-64
2022/10/06 10:38:55;;;;;;;2.80;1.63;;;22.60;99.90;;;;;;4979012;28;20466;-65
2022/10/06 10:41:26;;;;;;;5.90;1.97;;;22.60;99.90;;;;;;4978628;28;20529;-64
2022/10/06 10:43:56;;;;;;;3.00;1.90;;;23.30;99.90;;;;;;4978299;28;20906;-64
2022/10/06 10:46:28;;;;;;;5.10;1.60;;;23.30;99.90;;;;;;4978512;28;20455;-65
2022/10/06 10:49:00;;;;;;;3.77;1.90;;;23.40;99.90;;;;;;4978534;28;21042;-65
2022/10/06 10:51:31;;;;;;;2.50;1.40;;;23.10;99.90;;;;;;4981282;28;20478;-64
2022/10/06 10:54:03;;;;;;;2.73;1.60;;;22.70;99.90;;;;;;4978866;28;20482;-64
2022/10/06 10:56:32;;;;;;;1.87;1.53;;;22.40;99.90;;;;;;4980109;28;20470;-65
2022/10/06 10:59:06;;;;;;;3.90;2.47;;;22.20;99.90;;;;;;4978810;28;20455;-64
2022/10/06 11:01:39;;;;;;;4.90;1.90;;;22.20;99.90;;;;;;4978506;28;20516;-65
2022/10/06 11:04:10;;;;;;;2.80;1.60;;;22.20;99.90;;;;;;4978368;28;20493;-65
2022/10/06 11:06:58;;;;;;;3.77;1.47;;;22.50;99.90;;;;;;4978372;28;20442;-64
2022/10/06 11:09:36;;;;;;;3.27;1.90;;;22.60;99.90;;;;;;4978153;28;20818;-64
2022/10/06 11:12:17;;;;;;;5.47;1.93;;;22.80;99.90;;;;;;4978116;28;20475;-64
2022/10/06 11:14:56;;;;;;;7.40;1.63;;;23.00;99.90;;;;;;4978051;28;20446;-64
2022/10/06 11:17:43;;;;;;;2.03;1.50;;;22.70;99.90;;;;;;4978012;28;20443;-64
2022/10/06 11:20:33;;;;;;;2.97;1.67;;;22.90;99.90;;;;;;4977893;28;20449;-64
2022/10/06 11:23:17;;;;;;;4.63;1.53;;;23.10;99.90;;;;;;4978105;28;20451;-64
2022/10/06 11:25:54;;;;;;;7.40;1.93;;;23.40;99.90;;;;;;4978434;28;20451;-64
2022/10/06 11:28:24;;;;;;;2.83;1.40;;;23.80;99.90;;;;;;4977921;28;20449;-64
2022/10/06 11:31:01;;;;;;;4.73;1.80;;;23.60;99.90;;;;;;4978687;28;20529;-64
2022/10/06 11:33:33;;;;;;;2.40;1.77;;;23.60;99.90;;;;;;4977806;28;20474;-65
2022/10/06 11:36:02;;;;;;;4.93;2.07;;;23.60;99.90;;;;;;4977674;28;20439;-64
2022/10/06 11:38:36;;;;;;;4.70;1.93;;;23.70;99.90;;;;;;4977172;28;20502;-63
2022/10/06 11:41:12;;;;;;;5.63;1.70;;;23.60;99.90;;;;;;4978051;28;20470;-64
2022/10/06 11:43:47;;;;;;;1.83;1.53;;;23.80;99.90;;;;;;4977736;28;20434;-64
2022/10/06 11:46:30;;;;;;;8.37;1.93;;;23.90;99.90;;;;;;4977756;28;20444;-64
2022/10/06 11:49:31;;;;;;;4.20;2.33;;;23.50;99.90;;;;;;4977324;28;20463;-64
2022/10/06 11:52:36;;;;;;;2.57;1.53;;;23.10;99.90;;;;;;4977067;28;20469;-64
2022/10/06 11:55:15;;;;;;;6.40;1.80;;;22.60;99.90;;;;;;4977071;28;20992;-63
2022/10/06 11:58:18;;;;;;;4.90;1.90;;;22.40;99.90;;;;;;4977271;28;20441;-63
2022/10/06 12:00:52;;;;;;;2.77;1.90;;;21.90;99.90;;;;;;4976918;28;20540;-63
2022/10/06 12:03:46;;;;;;;10.43;2.00;;;21.70;99.90;;;;;;4976939;28;20910;-63
2022/10/06 12:06:57;;;;;;;4.37;2.10;;;21.40;99.90;;;;;;4976795;28;20845;-63
2022/10/06 12:09:45;;;;;;;3.17;2.23;;;21.30;99.90;;;;;;4976997;28;20470;-64
2022/10/06 12:12:42;;;;;;;5.30;1.70;;;21.10;99.90;;;;;;4976885;28;20502;-63
2022/10/06 12:15:22;;;;;;;4.10;2.43;;;21.00;99.90;;;;;;4976972;28;20950;-63
2022/10/06 12:17:55;;;;;;;7.03;2.30;;;20.90;99.90;;;;;;4977613;28;20439;-63
2022/10/06 12:20:33;;;;;;;5.37;1.90;;;20.90;99.90;;;;;;4976741;28;20555;-64
2022/10/06 12:23:10;;;;;;;11.73;3.10;;;20.80;99.90;;;;;;4976782;28;20937;-63
2022/10/06 12:25:46;;;;;;;4.63;1.73;;;20.80;99.90;;;;;;4976771;28;20969;-64
2022/10/06 12:28:23;;;;;;;3.80;1.80;;;20.70;99.90;;;;;;4976694;28;20489;-63
2022/10/06 12:31:11;;;;;;;2.83;1.90;;;20.70;99.90;;;;;;4976624;28;20522;-63
2022/10/06 12:33:40;;;;;;;8.90;2.00;;;20.70;99.90;;;;;;4976505;28;20522;-63
2022/10/06 12:36:17;;;;;;;5.77;2.10;;;20.80;99.90;;;;;;4976318;28;20866;-63
2022/10/06 12:39:03;;;;;;;3.67;2.30;;;20.80;99.90;;;;;;4976356;28;20804;-64
2022/10/06 12:41:58;;;;;;;5.80;2.20;;;20.80;99.90;;;;;;4976405;28;20475;-64
2022/10/06 12:44:27;;;;;;;11.07;2.30;;;20.80;99.90;;;;;;4952890;28;20555;-64
2022/10/06 12:46:58;;;;;;;3.53;1.57;;;20.70;99.90;;;;;;4976227;28;20473;-63
2022/10/06 12:49:42;;;;;;;3.33;2.30;;;20.60;99.90;;;;;;4976413;28;20467;-65
2022/10/06 12:52:43;;;;;;;5.73;2.03;;;20.60;99.90;;;;;;4976254;28;20554;-64
2022/10/06 12:55:30;;;;;;;5.60;2.20;;;20.60;99.90;;;;;;4974975;28;20933;-63
2022/10/06 12:57:58;;;;;;;5.67;1.60;;;20.60;99.90;;;;;;4976072;28;20513;-63
2022/10/06 13:00:33;;;;;;;5.67;2.00;;;20.70;99.90;;;;;;4975933;28;20533;-64
2022/10/06 13:03:05;;;;;;;4.47;1.43;;;20.80;99.90;;;;;;4975988;28;20434;-63
2022/10/06 13:05:32;;;;;;;2.17;1.73;;;20.90;99.90;;;;;;4975931;28;20439;-63
2022/10/06 13:08:01;;;;;;;5.83;2.00;;;20.90;99.90;;;;;;4975933;28;20446;-63
2022/10/06 13:10:29;;;;;;;7.80;1.57;;;20.90;99.90;;;;;;4975730;28;20478;-63
2022/10/06 13:12:57;;;;;;;8.73;1.53;;;20.70;99.90;;;;;;4975833;28;20459;-63
2022/10/06 13:15:27;;;;;;;1.80;1.33;;;20.70;99.90;;;;;;4975820;28;20454;-63
2022/10/06 13:17:57;;;;;;;6.90;1.80;;;20.80;99.90;;;;;;4975986;28;20454;-63
2022/10/06 13:20:41;;;;;;;2.80;1.40;;;20.90;99.90;;;;;;4977441;28;20505;-64
2022/10/06 13:23:28;;;;;;;2.57;1.33;;;21.30;99.90;;;;;;4976100;28;20505;-64
2022/10/06 13:25:58;;;;;;;5.90;1.60;;;21.60;99.90;;;;;;4975837;28;20470;-64
2022/10/06 13:28:30;;;;;;;4.23;1.57;;;21.80;99.90;;;;;;4975865;28;20462;-63
2022/10/06 13:30:59;;;;;;;4.07;1.90;;;22.00;99.90;;;;;;4975316;28;20985;-64
2022/10/06 13:33:28;;;;;;;4.80;2.20;;;22.10;99.90;;;;;;4975331;28;20968;-64
2022/10/06 13:35:58;;;;;;;4.80;1.50;;;22.00;99.90;;;;;;4975557;28;20451;-64
2022/10/06 13:38:25;;;;;;;4.63;1.47;;;22.10;99.90;;;;;;4975736;28;20557;-64
2022/10/06 13:41:06;;;;;;;3.17;1.67;;;22.20;99.90;;;;;;4975668;28;20478;-64
2022/10/06 13:43:39;;;;;;;3.20;1.50;;;22.20;99.90;;;;;;4975626;28;20505;-64
2022/10/06 13:46:09;;;;;;;5.57;1.80;;;22.30;99.90;;;;;;4976300;28;20837;-64
2022/10/06 13:48:36;;;;;;;6.03;2.83;;;22.40;99.90;;;;;;4975185;28;20458;-64
2022/10/06 13:51:04;;;;;;;4.33;2.00;;;22.30;99.90;;;;;;4975345;28;20576;-65
2022/10/06 13:53:32;;;;;;;3.53;1.87;;;22.40;99.90;;;;;;4978394;28;20896;-64
2022/10/06 13:55:59;;;;;;;4.77;1.67;;;22.30;99.90;;;;;;4975265;28;20454;-64
2022/10/06 13:58:28;;;;;;;6.77;1.90;;;22.20;99.90;;;;;;4975670;28;20482;-64
2022/10/06 14:00:59;;;;;;;5.63;1.67;;;22.10;99.90;;;;;;4974864;28;20506;-62
2022/10/06 14:03:32;;;;;;;3.63;1.50;;;21.90;99.90;;;;;;4975359;28;20453;-63
2022/10/06 14:06:16;;;;;;;4.97;1.70;;;21.80;99.90;;;;;;4978618;28;20474;-64
2022/10/06 14:08:46;;;;;;;5.90;1.63;;;21.80;99.90;;;;;;4990757;28;20926;-63
2022/10/06 14:11:13;;;;;;;4.50;1.50;;;21.70;99.90;;;;;;4988478;28;20569;-63
2022/10/06 14:13:48;;;;;;;5.30;2.00;;;21.50;99.90;;;;;;4988120;28;20455;-63
2022/10/06 14:16:20;;;;;;;3.03;1.83;;;21.50;99.90;;;;;;4987555;28;20489;-63
2022/10/06 14:18:54;;;;;;;3.07;1.47;;;21.50;99.90;;;;;;4975465;28;20975;-63
2022/10/06 14:21:32;;;;;;;4.27;1.57;;;21.60;99.90;;;;;;4975968;28;20474;-64
2022/10/06 14:23:59;;;;;;;1.83;1.57;;;21.60;99.90;;;;;;4975423;28;20535;-62
2022/10/06 14:26:28;;;;;;;3.37;1.53;;;21.70;99.90;;;;;;4975519;28;20443;-63
2022/10/06 14:28:56;;;;;;;6.73;1.47;;;21.70;99.90;;;;;;4975088;28;20545;-63
2022/10/06 14:31:24;;;;;;;1.83;1.20;;;21.70;99.90;;;;;;4974822;28;20533;-63
2022/10/06 14:33:52;;;;;;;5.67;1.80;;;21.70;99.90;;;;;;4974610;28;21013;-62
2022/10/06 14:36:22;;;;;;;4.33;1.37;;;21.60;99.90;;;;;;4974973;28;20498;-63
2022/10/06 14:38:51;;;;;;;3.17;1.50;;;21.60;99.90;;;;;;4974823;28;20462;-63
2022/10/06 14:41:23;;;;;;;2.13;1.30;;;21.50;99.90;;;;;;4974330;28;20978;-63
2022/10/06 14:43:52;;;;;;;3.07;1.67;;;21.40;99.90;;;;;;4974881;28;20805;-63
2022/10/06 14:46:19;;;;;;;3.10;1.20;;;21.20;99.90;;;;;;4974616;28;20517;-62
2022/10/06 14:48:45;;;;;;;2.07;1.30;;;21.10;99.90;;;;;;4974737;28;20466;-63
2022/10/06 14:51:12;;;;;;;4.30;1.63;;;21.00;99.90;;;;;;4974576;28;20478;-63
2022/10/06 14:53:39;;;;;;;2.60;1.37;;;21.00;99.90;;;;;;4974835;28;20855;-63
2022/10/06 14:56:09;;;;;;;2.70;1.57;;;20.90;99.90;;;;;;4974382;28;20861;-63
2022/10/06 14:58:37;;;;;;;2.17;1.33;;;20.90;99.90;;;;;;4975569;28;20447;-63
2022/10/06 15:01:05;;;;;;;5.73;1.60;;;20.70;99.90;;;;;;4974362;28;20481;-63
2022/10/06 15:03:32;;;;;;;2.87;1.43;;;20.70;99.90;;;;;;4974583;28;20459;-63
2022/10/06 15:08:51;;;;;;;4.07;1.50;;;20.60;99.90;;;;;;4974724;28;20413;-63
2022/10/06 15:11:19;;;;;;;2.60;1.50;;;20.60;99.90;;;;;;4974307;28;20486;-63
2022/10/06 15:13:47;;;;;;;2.53;1.70;;;20.50;99.90;;;;;;4976243;28;20822;-63
2022/10/06 15:16:14;;;;;;;6.50;1.80;;;20.40;99.90;;;;;;4978100;28;20443;-63
2022/10/06 15:18:41;;;;;;;3.87;1.97;;;20.30;99.90;;;;;;4978078;28;20465;-63
2022/10/06 15:21:08;;;;;;;6.10;1.80;;;20.20;99.90;;;;;;4977528;28;20989;-64
2022/10/06 15:23:35;;;;;;;5.23;1.70;;;20.10;99.90;;;;;;4977450;28;20473;-63
2022/10/06 15:29:02;;;;;;;8.80;2.50;;;19.90;99.90;;;;;;4977989;28;20418;-64
2022/10/06 15:31:32;;;;;;;3.30;2.27;;;19.90;99.90;;;;;;4977314;28;21019;-63
2022/10/06 15:34:00;;;;;;;5.07;1.83;;;19.90;99.90;;;;;;4977671;28;20549;-63
2022/10/06 15:36:28;;;;;;;2.53;1.53;;;19.80;99.90;;;;;;4977365;28;20550;-63
2022/10/06 15:38:58;;;;;;;3.00;1.50;;;19.80;99.90;;;;;;4977698;28;21005;-63
2022/10/06 15:41:25;;;;;;;3.87;1.70;;;19.70;99.90;;;;;;4977284;28;20565;-63
2022/10/06 15:43:54;;;;;;;2.83;1.90;;;19.60;99.90;;;;;;4977285;28;20970;-63
2022/10/06 15:46:21;;;;;;;5.27;1.60;;;19.50;99.90;;;;;;4977362;28;20463;-63
2022/10/06 15:48:48;;;;;;;3.37;1.73;;;19.40;99.90;;;;;;4977396;28;20478;-63
2022/10/06 15:51:15;;;;;;;3.20;1.73;;;19.40;99.90;;;;;;4977101;28;20486;-63
2022/10/06 15:53:42;;;;;;;4.10;1.83;;;19.30;99.90;;;;;;4976897;28;20459;-64
2022/10/06 15:56:10;;;;;;;4.10;1.83;;;19.20;99.90;;;;;;4977345;28;20461;-63
2022/10/06 15:58:36;;;;;;;3.57;1.80;;;19.20;99.90;;;;;;4976878;28;20528;-64
2022/10/06 16:01:05;;;;;;;5.30;2.10;;;19.20;99.90;;;;;;4977117;28;20486;-63
2022/10/06 16:03:37;;;;;;;3.37;1.67;;;19.10;99.90;;;;;;4977217;28;20545;-63
2022/10/06 16:06:07;;;;;;;5.40;1.80;;;19.10;99.90;;;;;;4977677;28;20506;-63
2022/10/06 16:08:34;;;;;;;3.27;1.83;;;19.00;99.90;;;;;;4977531;28;20467;-62
2022/10/06 16:11:01;;;;;;;4.73;1.77;;;19.00;99.90;;;;;;4977119;28;21048;-62
2022/10/06 16:13:28;;;;;;;4.30;2.17;;;19.00;99.90;;;;;;4977771;28;20549;-64
2022/10/06 16:15:55;;;;;;;2.10;1.70;;;18.90;99.90;;;;;;4976618;28;20896;-64
2022/10/06 16:18:23;;;;;;;6.87;1.80;;;18.90;99.90;;;;;;4976689;28;20465;-62
2022/10/06 16:20:53;;;;;;;3.60;1.53;;;18.90;99.90;;;;;;4976840;28;20494;-63
2022/10/06 16:23:20;;;;;;;3.03;1.90;;;18.90;99.90;;;;;;4976977;28;20494;-62
2022/10/06 16:25:48;;;;;;;3.90;1.97;;;18.80;99.90;;;;;;4977246;28;20458;-63
2022/10/06 16:28:15;;;;;;;4.70;2.20;;;18.70;99.90;;;;;;4976882;28;20458;-62
2022/10/06 16:30:42;;;;;;;2.50;1.93;;;18.70;99.90;;;;;;4976619;28;20499;-62
2022/10/06 16:33:08;;;;;;;3.80;1.87;;;18.60;99.90;;;;;;4976916;28;20459;-63
2022/10/06 16:35:36;;;;;;;3.30;1.80;;;18.60;99.90;;;;;;4976813;28;20455;-62
2022/10/06 16:38:03;;;;;;;5.60;3.17;;;18.50;99.90;;;;;;4976825;28;20506;-62
2022/10/06 16:40:30;;;;;;;4.07;1.70;;;18.40;99.90;;;;;;4976506;28;20458;-62
2022/10/06 16:42:56;;;;;;;4.90;2.07;;;18.30;99.90;;;;;;4976509;28;20463;-63
2022/10/06 16:45:24;;;;;;;2.23;1.60;;;18.20;99.90;;;;;;4976553;28;20466;-62
2022/10/06 16:47:50;;;;;;;3.87;2.60;;;18.10;99.90;;;;;;4976333;28;20509;-62
2022/10/06 16:50:17;;;;;;;2.53;2.10;;;18.00;99.90;;;;;;4976586;28;20816;-62
2022/10/06 16:52:45;;;;;;;5.00;2.70;;;17.90;99.90;;;;;;4976192;28;20458;-61
2022/10/06 16:55:12;;;;;;;6.93;4.33;;;17.90;99.90;;;;;;4976110;28;20455;-62
2022/10/06 16:57:38;;;;;;;5.40;4.80;;;17.80;99.90;;;;;;4975776;28;20897;-62
2022/10/06 17:00:05;;;;;;;7.17;4.50;;;17.70;99.90;;;;;;4976011;28;20458;-62
2022/10/06 17:02:33;;;;;;;3.50;3.27;;;17.70;99.90;;;;;;4976311;28;20488;-63
2022/10/06 17:05:00;;;;;;;4.10;3.67;;;17.60;99.90;;;;;;4976159;28;20486;-64
2022/10/06 17:07:27;;;;;;;5.47;3.47;;;17.60;99.90;;;;;;4976121;28;20454;-61
2022/10/06 17:09:55;;;;;;;7.73;3.37;;;17.60;99.90;;;;;;4976205;28;20462;-61
2022/10/06 17:12:22;;;;;;;3.80;3.50;;;17.50;99.90;;;;;;4976053;28;20510;-61
2022/10/06 17:14:48;;;;;;;7.13;3.23;;;17.50;99.90;;;;;;4976247;28;20451;-61
2022/10/06 17:17:15;;;;;;;2.90;2.70;;;17.50;99.90;;;;;;4975772;28;20458;-61
2022/10/06 17:19:41;;;;;;;6.83;3.03;;;17.50;99.90;;;;;;4975987;28;20459;-61
2022/10/06 17:22:08;;;;;;;4.53;2.80;;;17.40;99.90;;;;;;4976158;28;20466;-63
2022/10/06 17:24:35;;;;;;;4.23;2.10;;;17.40;99.90;;;;;;4975855;28;20463;-63